KATY/ATY METAR and TAF weather

Enter ICAO airport designator
Station Type Date Time Source
KATY METAR 2023/02/05 23:10 UTC NOAA

KATY 052310Z AUTO 16008KT 3/4SM BR OVC002 M03/M04 A2999 RMK AO2 T10331039


Station Type Date Time Source
KATY Decoded METAR 2023/02/05 23:10 UTC NOAA

WATERTOWN MUNICIPAL AIRPORT, SD, United States (KATY) 44-54N 097-09W 532M
Feb 05, 2023 - 06:10 PM EST / 2023.02.05 2310 UTC
Wind: from the SSE (160 degrees) at 9 MPH (8 KT):0
Visibility: 3/4 mile(s):0
Sky conditions: overcast
Weather: mist
Temperature: 26.1 F (-3.3 C)
Windchill: 17 F (-8 C):1
Dew Point: 25.0 F (-3.9 C)
Relative Humidity: 95%
Pressure (altimeter): 29.99 in. Hg (1015 hPa)
ob: KATY 052310Z AUTO 16008KT 3/4SM BR OVC002 M03/M04 A2999 RMK AO2 T10331039
cycle: 23

Station Type Date Time Source
KATY TAF 2023/02/05 23:09 UTC NOAA

TAF
AMD KATY 052306Z 0523/0618 19008KT 1/4SM FZFG VV002
FM060100 17010KT P6SM BKN029
FM061200 17024G36KT P6SM BKN020 WS020/19055KT
FM061700 19020G30KT P6SM BKN014

Example: see airport list